createdAt,value
2018-03-08T00:00:12.614Z,3.62
2018-03-08T00:01:21.719Z,3.68
2018-03-08T00:02:30.545Z,3.76
2018-03-08T00:03:39.373Z,3.7
2018-03-08T00:04:48.203Z,3.68
2018-03-08T00:05:57.028Z,3.69
2018-03-08T00:07:05.860Z,3.68
2018-03-08T00:08:14.689Z,3.69
2018-03-08T00:09:23.517Z,3.65
2018-03-08T00:10:32.344Z,3.66
2018-03-08T00:11:41.172Z,3.68
2018-03-08T00:12:50.003Z,3.72
2018-03-08T00:13:59.107Z,3.62
2018-03-08T00:15:08.211Z,3.62
2018-03-08T00:16:17.038Z,3.69
2018-03-08T00:17:25.868Z,3.61
2018-03-08T00:18:34.696Z,3.8
2018-03-08T00:19:43.833Z,3.65
2018-03-08T00:20:52.935Z,3.66
2018-03-08T00:22:01.765Z,3.68
2018-03-08T00:23:10.597Z,3.69
2018-03-08T00:24:19.421Z,3.69
2018-03-08T00:25:28.399Z,3.62
2018-03-08T00:26:37.231Z,3.72
2018-03-08T00:27:46.068Z,3.61
2018-03-08T00:28:54.897Z,3.65
2018-03-08T00:30:03.726Z,3.66
2018-03-08T00:31:12.854Z,3.68
2018-03-08T00:32:21.728Z,3.73
2018-03-08T00:33:30.556Z,3.66
2018-03-08T00:34:39.387Z,3.69
2018-03-08T00:35:48.216Z,3.66
2018-03-08T00:36:57.315Z,3.69
2018-03-08T00:38:06.144Z,3.73
2018-03-08T00:39:14.974Z,3.65
2018-03-08T00:40:23.940Z,3.73
2018-03-08T00:41:32.921Z,3.7
2018-03-08T00:42:41.796Z,3.72
2018-03-08T00:43:50.625Z,3.69
2018-03-08T00:44:59.453Z,3.68
2018-03-08T00:46:08.559Z,3.62
2018-03-08T00:47:17.385Z,3.7
2018-03-08T00:48:26.264Z,3.72
2018-03-08T00:49:35.092Z,3.73
2018-03-08T00:50:43.921Z,3.78
2018-03-08T00:51:52.748Z,3.78
2018-03-08T00:53:02.134Z,3.69
2018-03-08T00:54:11.368Z,3.75
2018-03-08T00:55:20.176Z,3.72
2018-03-08T00:56:29.005Z,3.69
2018-03-08T00:57:38.111Z,3.66
2018-03-08T00:58:47.219Z,3.69
2018-03-08T00:59:56.622Z,3.72
2018-03-08T01:01:05.733Z,3.7
2018-03-08T01:02:14.562Z,3.66
2018-03-08T01:03:23.387Z,3.66
2018-03-08T01:04:32.217Z,3.75
2018-03-08T01:05:41.344Z,3.62
2018-03-08T01:06:50.173Z,3.61
2018-03-08T01:07:59.002Z,3.69
2018-03-08T01:09:07.828Z,3.73
2018-03-08T01:10:16.655Z,3.75
2018-03-08T01:11:25.538Z,3.69
2018-03-08T01:12:34.365Z,3.69
2018-03-08T01:13:43.193Z,3.69
2018-03-08T01:14:52.023Z,3.7
2018-03-08T01:16:00.851Z,3.72
2018-03-08T01:17:10.059Z,3.7
2018-03-08T01:18:18.883Z,3.76
2018-03-08T01:19:27.711Z,3.65
2018-03-08T01:20:36.538Z,3.7
2018-03-08T01:21:45.367Z,3.66
2018-03-08T01:22:54.297Z,3.66
2018-03-08T01:24:03.124Z,3.7
2018-03-08T01:25:11.957Z,3.69
2018-03-08T01:26:21.331Z,3.66
2018-03-08T01:27:30.164Z,3.68
2018-03-08T01:28:38.992Z,3.7
2018-03-08T01:29:47.820Z,3.68
2018-03-08T01:30:56.648Z,3.66
2018-03-08T01:32:05.477Z,3.69
2018-03-08T01:33:14.304Z,3.68
2018-03-08T01:34:23.283Z,3.65
2018-03-08T01:35:32.395Z,3.69
2018-03-08T01:36:41.229Z,3.7
2018-03-08T01:37:50.328Z,3.7
2018-03-08T01:38:59.158Z,3.75
2018-03-08T01:40:08.285Z,3.72
2018-03-08T01:41:17.113Z,3.73
2018-03-08T01:42:25.941Z,3.72
2018-03-08T01:43:34.773Z,3.69
2018-03-08T01:44:43.601Z,3.55
2018-03-08T01:45:52.581Z,3.73
2018-03-08T01:47:01.410Z,3.68
2018-03-08T01:48:10.240Z,3.75
2018-03-08T01:49:19.071Z,3.7
2018-03-08T01:50:28.172Z,3.66
2018-03-08T01:51:37.147Z,3.65
2018-03-08T01:52:45.980Z,3.7
2018-03-08T01:53:54.806Z,3.73
2018-03-08T01:55:03.634Z,3.72
2018-03-08T01:56:12.742Z,3.78
2018-03-08T01:57:21.876Z,3.7
2018-03-08T01:58:30.698Z,3.66
2018-03-08T01:59:39.525Z,3.76
2018-03-08T02:00:48.353Z,3.69
2018-03-08T02:01:57.178Z,3.7
2018-03-08T02:03:06.107Z,3.72
2018-03-08T02:04:14.936Z,3.66
2018-03-08T02:05:23.765Z,3.7
2018-03-08T02:06:32.591Z,3.68
2018-03-08T02:07:41.699Z,3.65
2018-03-08T02:08:50.678Z,3.73
2018-03-08T02:09:59.517Z,3.68
2018-03-08T02:11:08.333Z,3.68
2018-03-08T02:12:17.163Z,3.75
2018-03-08T02:13:26.268Z,3.75
2018-03-08T02:14:35.208Z,3.66
2018-03-08T02:15:44.311Z,3.66
2018-03-08T02:16:53.141Z,3.72
2018-03-08T02:18:01.972Z,3.7
2018-03-08T02:19:10.800Z,3.68
2018-03-08T02:20:19.629Z,3.7
2018-03-08T02:21:28.458Z,3.69
2018-03-08T02:22:37.290Z,3.72
2018-03-08T02:23:46.393Z,3.75
2018-03-08T02:24:55.219Z,3.62
2018-03-08T02:26:04.249Z,3.72
2018-03-08T02:27:13.077Z,3.73
2018-03-08T02:28:21.905Z,3.73
2018-03-08T02:29:30.736Z,3.87
2018-03-08T02:30:39.840Z,3.87
2018-03-08T02:31:48.977Z,3.87
2018-03-08T02:32:57.804Z,3.87
2018-03-08T02:34:07.186Z,3.83
2018-03-08T02:35:16.017Z,3.9
2018-03-08T02:36:25.121Z,3.73
2018-03-08T02:37:33.948Z,3.86
2018-03-08T02:38:42.778Z,3.8
2018-03-08T02:39:51.607Z,3.8
2018-03-08T02:41:00.434Z,3.83
2018-03-08T02:42:09.549Z,3.87
2018-03-08T02:43:18.659Z,3.88
2018-03-08T02:44:27.486Z,3.8
2018-03-08T02:45:36.314Z,3.75
2018-03-08T02:46:45.142Z,3.8
2018-03-08T02:47:53.976Z,3.79
2018-03-08T02:49:02.802Z,3.86
2018-03-08T02:50:11.631Z,3.8
2018-03-08T02:51:20.458Z,3.8
2018-03-08T02:52:29.293Z,3.79
2018-03-08T02:53:38.124Z,3.8
2018-03-08T02:54:47.004Z,3.93
2018-03-08T02:55:55.832Z,3.88
2018-03-08T02:57:05.226Z,3.91
2018-03-08T02:58:14.044Z,3.87
2018-03-08T02:59:22.871Z,3.88
2018-03-08T03:00:31.800Z,3.88
2018-03-08T03:01:40.633Z,3.88
2018-03-08T03:02:49.459Z,3.94
2018-03-08T03:03:58.568Z,3.91
2018-03-08T03:05:07.396Z,3.91
2018-03-08T03:06:16.503Z,3.91
2018-03-08T03:07:25.899Z,3.9
2018-03-08T03:08:34.724Z,3.94
2018-03-08T03:09:43.555Z,3.91
2018-03-08T03:10:52.656Z,3.9
2018-03-08T03:12:01.637Z,3.9
2018-03-08T03:13:10.465Z,3.9
2018-03-08T03:14:19.297Z,3.9
2018-03-08T03:15:28.677Z,3.98
2018-03-08T03:16:37.507Z,4
2018-03-08T03:17:46.385Z,3.97
2018-03-08T03:18:55.213Z,3.97
2018-03-08T03:20:04.041Z,3.94
2018-03-08T03:21:12.871Z,3.98
2018-03-08T03:22:21.978Z,3.98
2018-03-08T03:23:31.284Z,3.96
2018-03-08T03:24:40.400Z,4.04
2018-03-08T03:25:49.230Z,4.11
2018-03-08T03:26:58.057Z,4.11
2018-03-08T03:28:06.885Z,4.08
2018-03-08T03:29:15.715Z,4.09
2018-03-08T03:30:24.547Z,4.06
2018-03-08T03:31:33.655Z,4.08
2018-03-08T03:32:42.480Z,4.11
2018-03-08T03:33:51.308Z,4.12
2018-03-08T03:35:00.139Z,4.09
2018-03-08T03:36:08.969Z,4.06
2018-03-08T03:37:17.797Z,4.11
2018-03-08T03:38:26.624Z,4.11
2018-03-08T03:39:35.455Z,4.09
2018-03-08T03:40:44.286Z,4.09
2018-03-08T03:41:53.113Z,4.12
2018-03-08T03:43:01.942Z,4.18
2018-03-08T03:44:10.771Z,4.15
2018-03-08T03:45:19.602Z,4.16
2018-03-08T03:46:28.529Z,4.24
2018-03-08T03:47:37.358Z,4.2
2018-03-08T03:48:46.189Z,4.14
2018-03-08T03:49:55.302Z,4.26
2018-03-08T03:51:04.130Z,4.24
2018-03-08T03:52:13.288Z,4.26
2018-03-08T03:53:22.167Z,4.26
2018-03-08T03:54:30.996Z,4.27
2018-03-08T03:55:39.823Z,4.23
2018-03-08T03:56:48.653Z,4.18
2018-03-08T03:57:57.541Z,4.23
2018-03-08T03:59:06.920Z,4.24
2018-03-08T04:00:15.751Z,4.24
2018-03-08T04:01:24.581Z,4.32
2018-03-08T04:02:33.408Z,4.27
2018-03-08T04:03:42.536Z,4.32
2018-03-08T04:04:51.363Z,4.24
2018-03-08T04:06:00.469Z,4.32
2018-03-08T04:07:09.296Z,4.26
2018-03-08T04:08:18.125Z,4.34
2018-03-08T04:09:26.953Z,4.3
2018-03-08T04:10:35.781Z,4.34
2018-03-08T04:11:44.610Z,4.34
2018-03-08T04:12:53.438Z,4.3
2018-03-08T04:14:02.265Z,4.32
2018-03-08T04:15:11.143Z,4.27
2018-03-08T04:16:19.972Z,4.41
2018-03-08T04:17:28.798Z,4.5
2018-03-08T04:18:37.626Z,4.47
2018-03-08T04:19:46.455Z,4.59
2018-03-08T04:20:55.283Z,4.59
2018-03-08T04:22:04.109Z,4.63
2018-03-08T04:23:13.492Z,4.7
2018-03-08T04:24:22.595Z,4.63
2018-03-08T04:25:31.425Z,4.58
2018-03-08T04:26:40.656Z,4.77
2018-03-08T04:27:49.484Z,4.7
2018-03-08T04:28:58.594Z,4.77
2018-03-08T04:30:07.423Z,4.94
2018-03-08T04:31:16.252Z,4.85
2018-03-08T04:32:25.178Z,4.73
2018-03-08T04:33:34.007Z,4.94
2018-03-08T04:34:43.116Z,4.77
2018-03-08T04:35:52.219Z,4.91
2018-03-08T04:37:01.049Z,4.82
2018-03-08T04:38:09.879Z,4.96
2018-03-08T04:39:18.706Z,4.89
2018-03-08T04:40:27.537Z,4.8
2018-03-08T04:41:36.367Z,4.82
2018-03-08T04:42:45.195Z,4.72
2018-03-08T04:43:54.076Z,4.82
2018-03-08T04:45:02.905Z,4.86
2018-03-08T04:46:11.735Z,4.75
2018-03-08T04:47:20.562Z,4.73
2018-03-08T04:48:29.391Z,4.77
2018-03-08T04:49:38.371Z,4.75
2018-03-08T04:50:47.201Z,4.73
2018-03-08T04:51:56.030Z,4.75
2018-03-08T04:53:04.859Z,4.89
2018-03-08T04:54:13.687Z,4.72
2018-03-08T04:55:22.514Z,4.7
2018-03-08T04:56:31.342Z,4.54
2018-03-08T04:57:40.170Z,4.69
2018-03-08T04:58:48.998Z,4.63
2018-03-08T04:59:57.825Z,4.6
2018-03-08T05:01:06.756Z,4.59
2018-03-08T05:02:15.583Z,4.55
2018-03-08T05:03:24.410Z,4.41
2018-03-08T05:04:33.240Z,4.44
2018-03-08T05:05:42.067Z,4.47
2018-03-08T05:06:50.897Z,4.55
2018-03-08T05:07:59.999Z,4.42
2018-03-08T05:09:08.832Z,4.6
2018-03-08T05:10:17.660Z,4.69
2018-03-08T05:11:26.487Z,4.59
2018-03-08T05:12:35.468Z,4.44
2018-03-08T05:13:44.568Z,4.62
2018-03-08T05:14:53.395Z,4.4
2018-03-08T05:16:02.265Z,4.59
2018-03-08T05:17:11.051Z,4.65
2018-03-08T05:18:20.181Z,4.69
2018-03-08T05:19:29.011Z,4.65
2018-03-08T05:20:37.839Z,4.44
2018-03-08T05:21:46.667Z,4.3
2018-03-08T05:22:55.495Z,4.32
2018-03-08T05:24:04.324Z,4.37
2018-03-08T05:25:13.153Z,4.22
2018-03-08T05:26:21.981Z,4.09
2018-03-08T05:27:30.808Z,3.91
2018-03-08T05:28:39.636Z,3.9
2018-03-08T05:29:48.766Z,3.86
2018-03-08T05:30:57.592Z,4
2018-03-08T05:32:06.419Z,4.08
2018-03-08T05:33:15.249Z,3.93
2018-03-08T05:34:24.076Z,3.87
2018-03-08T05:35:33.006Z,3.84
2018-03-08T05:36:41.833Z,3.87
2018-03-08T05:37:50.658Z,3.83
2018-03-08T05:38:59.765Z,3.84
2018-03-08T05:40:08.593Z,3.86
2018-03-08T05:41:17.574Z,3.83
2018-03-08T05:42:26.403Z,3.7
2018-03-08T05:43:35.230Z,3.7
2018-03-08T05:44:44.057Z,3.78
2018-03-08T05:45:52.885Z,3.76
2018-03-08T05:47:01.816Z,3.69
2018-03-08T05:48:10.641Z,3.73
2018-03-08T05:49:19.472Z,3.76
2018-03-08T05:50:28.296Z,3.8
2018-03-08T05:51:37.124Z,3.78
2018-03-08T05:52:46.052Z,3.76
2018-03-08T05:53:55.153Z,3.76
2018-03-08T05:55:03.980Z,3.7
2018-03-08T05:56:12.807Z,3.7
2018-03-08T05:57:21.636Z,3.7
2018-03-08T05:58:30.664Z,3.66
2018-03-08T05:59:39.492Z,3.7
2018-03-08T06:00:48.324Z,3.87
2018-03-08T06:01:57.148Z,3.72
2018-03-08T06:03:05.982Z,3.87
2018-03-08T06:04:14.811Z,3.84
2018-03-08T06:05:23.640Z,3.79
2018-03-08T06:06:32.467Z,3.73
2018-03-08T06:07:41.568Z,3.69
2018-03-08T06:08:50.397Z,3.83
2018-03-08T06:09:59.227Z,3.75
2018-03-08T06:11:08.335Z,3.7
2018-03-08T06:12:17.164Z,3.76
2018-03-08T06:13:25.991Z,3.8
2018-03-08T06:14:34.818Z,3.78
2018-03-08T06:15:43.846Z,3.73
2018-03-08T06:16:52.947Z,3.69
2018-03-08T06:18:01.774Z,3.73
2018-03-08T06:19:10.602Z,3.8
2018-03-08T06:20:19.428Z,3.78
2018-03-08T06:21:28.307Z,3.79
2018-03-08T06:22:37.137Z,3.7
2018-03-08T06:23:45.962Z,3.78
2018-03-08T06:24:54.797Z,3.78
2018-03-08T06:26:03.622Z,3.72
2018-03-08T06:27:13.040Z,3.78
2018-03-08T06:28:21.877Z,3.76
2018-03-08T06:29:30.704Z,3.8
2018-03-08T06:30:39.534Z,3.79
2018-03-08T06:31:48.359Z,3.8
2018-03-08T06:32:57.289Z,3.8
2018-03-08T06:34:06.119Z,3.76
2018-03-08T06:35:14.943Z,3.83
2018-03-08T06:36:23.821Z,3.75
2018-03-08T06:37:32.647Z,3.84
2018-03-08T06:38:41.751Z,3.73
2018-03-08T06:39:50.580Z,3.87
2018-03-08T06:40:59.411Z,3.8
2018-03-08T06:42:08.236Z,3.83
2018-03-08T06:43:17.065Z,4.04
2018-03-08T06:44:26.094Z,3.87
2018-03-08T06:45:34.922Z,3.78
2018-03-08T06:46:43.749Z,3.69
2018-03-08T06:47:52.575Z,3.62
2018-03-08T06:49:01.403Z,3.69
2018-03-08T06:50:10.380Z,3.69
2018-03-08T06:51:19.205Z,3.72
2018-03-08T06:52:28.035Z,3.61
2018-03-08T06:53:36.863Z,3.69
2018-03-08T06:54:45.692Z,3.69
2018-03-08T06:55:54.623Z,3.69
2018-03-08T06:57:03.452Z,3.76
2018-03-08T06:58:12.842Z,3.76
2018-03-08T06:59:21.669Z,3.76
2018-03-08T07:00:30.502Z,3.76
2018-03-08T07:01:39.634Z,3.87
2018-03-08T07:02:48.487Z,3.73
2018-03-08T07:03:57.295Z,3.9
2018-03-08T07:05:06.123Z,3.9
2018-03-08T07:06:15.243Z,3.86
2018-03-08T07:07:24.072Z,3.88
2018-03-08T07:08:32.901Z,3.87
2018-03-08T07:09:41.729Z,3.98
2018-03-08T07:10:50.560Z,3.87
2018-03-08T07:11:59.387Z,3.87
2018-03-08T07:13:08.315Z,3.91
2018-03-08T07:14:17.146Z,3.83
2018-03-08T07:15:25.974Z,3.83
2018-03-08T07:16:34.804Z,3.86
2018-03-08T07:17:43.632Z,3.87
2018-03-08T07:18:52.791Z,3.86
2018-03-08T07:20:01.620Z,3.84
2018-03-08T07:21:10.448Z,3.84
2018-03-08T07:22:19.277Z,3.97
2018-03-08T07:23:28.105Z,3.9
2018-03-08T07:24:37.262Z,4.02
2018-03-08T07:25:46.093Z,4.08
2018-03-08T07:26:54.923Z,4.08
2018-03-08T07:28:03.752Z,4.06
2018-03-08T07:29:12.581Z,4.08
2018-03-08T07:30:21.459Z,4.16
2018-03-08T07:31:30.289Z,4.14
2018-03-08T07:32:39.118Z,4.18
2018-03-08T07:33:47.950Z,4.23
2018-03-08T07:34:56.773Z,4.18
2018-03-08T07:36:05.751Z,4.12
2018-03-08T07:37:14.860Z,4.16
2018-03-08T07:38:23.696Z,4.22
2018-03-08T07:39:32.523Z,4.16
2018-03-08T07:40:41.348Z,4.24
2018-03-08T07:41:50.758Z,4.26
2018-03-08T07:42:59.588Z,4.22
2018-03-08T07:44:08.418Z,4.29
2018-03-08T07:45:17.247Z,4.34
2018-03-08T07:46:26.077Z,4.3
2018-03-08T07:47:35.007Z,4.36
2018-03-08T07:48:44.113Z,4.36
2018-03-08T07:49:52.941Z,4.37
2018-03-08T07:51:01.772Z,4.52
2018-03-08T07:52:10.602Z,4.52
2018-03-08T07:53:19.582Z,4.55
2018-03-08T07:54:28.690Z,4.54
2018-03-08T07:55:37.520Z,4.45
2018-03-08T07:56:46.352Z,4.65
2018-03-08T07:57:55.180Z,4.63
2018-03-08T07:59:04.393Z,4.55
2018-03-08T08:00:13.494Z,4.54
2018-03-08T08:01:22.602Z,4.65
2018-03-08T08:02:31.431Z,4.62
2018-03-08T08:03:40.265Z,4.62
2018-03-08T08:04:49.093Z,4.7
2018-03-08T08:05:57.921Z,4.6
2018-03-08T08:07:06.751Z,4.7
2018-03-08T08:08:15.581Z,4.7
2018-03-08T08:09:24.410Z,4.69
2018-03-08T08:10:33.293Z,4.72
2018-03-08T08:11:42.070Z,4.75
2018-03-08T08:12:51.179Z,4.7
2018-03-08T08:14:00.006Z,4.72
2018-03-08T08:15:08.836Z,4.78
2018-03-08T08:16:17.765Z,5.04
2018-03-08T08:17:26.595Z,5
2018-03-08T08:18:35.424Z,4.91
2018-03-08T08:19:44.254Z,4.97
2018-03-08T08:20:53.136Z,4.91
2018-03-08T08:22:02.241Z,4.96
2018-03-08T08:23:11.071Z,5
2018-03-08T08:24:19.903Z,4.97
2018-03-08T08:25:29.008Z,4.96
2018-03-08T08:26:37.836Z,4.99
2018-03-08T08:27:46.667Z,5
2018-03-08T08:28:55.500Z,5.04
2018-03-08T08:30:04.329Z,4.94
2018-03-08T08:31:13.158Z,4.99
2018-03-08T08:32:21.988Z,5.04
2018-03-08T08:33:31.069Z,5.1
2018-03-08T08:34:39.901Z,4.99
2018-03-08T08:35:48.731Z,5
2018-03-08T08:36:57.566Z,5.07
2018-03-08T08:38:06.398Z,5.04
2018-03-08T08:39:15.327Z,5.07
2018-03-08T08:40:24.156Z,5.17
2018-03-08T08:41:32.990Z,5.1
2018-03-08T08:42:41.822Z,5.06
2018-03-08T08:43:50.931Z,5
2018-03-08T08:45:00.095Z,4.96
2018-03-08T08:46:08.923Z,5
2018-03-08T08:47:17.752Z,5.07
2018-03-08T08:48:26.581Z,5.02
2018-03-08T08:49:35.411Z,5.06
2018-03-08T08:50:44.240Z,5.1
2018-03-08T08:51:53.346Z,5.07
2018-03-08T08:53:02.177Z,5.13
2018-03-08T08:54:11.011Z,5.17
2018-03-08T08:55:20.121Z,5.03
2018-03-08T08:56:28.949Z,5.17
2018-03-08T08:57:37.780Z,5.06
2018-03-08T08:58:46.618Z,5.15
2018-03-08T08:59:55.447Z,5.06
2018-03-08T09:01:04.272Z,5.13
2018-03-08T09:02:13.301Z,5.15
2018-03-08T09:03:22.131Z,5.13
2018-03-08T09:04:30.965Z,5.06
2018-03-08T09:05:39.797Z,5.1
2018-03-08T09:06:48.626Z,5.17
2018-03-08T09:07:57.507Z,5.17
2018-03-08T09:09:06.337Z,5.28
2018-03-08T09:10:15.168Z,5.21
2018-03-08T09:11:24.284Z,5.2
2018-03-08T09:12:33.110Z,5.3
2018-03-08T09:13:41.947Z,5.28
2018-03-08T09:14:50.775Z,5.3
2018-03-08T09:15:59.604Z,5.39
2018-03-08T09:17:08.444Z,5.39
2018-03-08T09:18:17.554Z,5.43
2018-03-08T09:19:26.912Z,5.46
2018-03-08T09:20:35.742Z,5.49
2018-03-08T09:21:44.575Z,5.46
2018-03-08T09:22:53.405Z,5.64
2018-03-08T09:24:02.523Z,5.56
2018-03-08T09:25:11.459Z,5.64
2018-03-08T09:26:20.568Z,5.63
2018-03-08T09:27:29.398Z,5.63
2018-03-08T09:28:38.229Z,5.67
2018-03-08T09:29:47.058Z,5.64
2018-03-08T09:30:56.037Z,5.63
2018-03-08T09:32:04.870Z,5.64
2018-03-08T09:33:13.701Z,5.65
2018-03-08T09:34:22.808Z,5.64
2018-03-08T09:35:31.640Z,5.61
2018-03-08T09:36:40.521Z,5.58
2018-03-08T09:37:49.349Z,5.6
2018-03-08T09:38:58.181Z,5.51
2018-03-08T09:40:07.012Z,5.49
2018-03-08T09:41:15.845Z,5.58
2018-03-08T09:42:25.000Z,5.61
2018-03-08T09:43:33.832Z,5.65
2018-03-08T09:44:42.666Z,5.67
2018-03-08T09:45:51.498Z,5.79
2018-03-08T09:47:00.324Z,5.89
2018-03-08T09:48:09.479Z,5.89
2018-03-08T09:49:18.309Z,5.78
2018-03-08T09:50:27.140Z,5.93
2018-03-08T09:51:35.972Z,5.9
2018-03-08T09:52:44.801Z,6.01
2018-03-08T09:53:53.729Z,6.01
2018-03-08T09:55:02.559Z,6.09
2018-03-08T09:56:11.668Z,6.11
2018-03-08T09:57:20.499Z,6.14
2018-03-08T09:58:29.332Z,6.12
2018-03-08T09:59:38.214Z,6.12
2018-03-08T10:00:47.045Z,6.06
2018-03-08T10:01:55.878Z,6.18
2018-03-08T10:03:04.721Z,6.22
2018-03-08T10:04:13.540Z,6.22
2018-03-08T10:05:22.523Z,6.28
2018-03-08T10:06:31.354Z,6.36
2018-03-08T10:07:40.193Z,6.41
2018-03-08T10:08:49.027Z,6.37
2018-03-08T10:09:57.856Z,6.38
2018-03-08T10:11:06.789Z,6.41
2018-03-08T10:12:15.621Z,6.4
2018-03-08T10:13:24.453Z,6.34
2018-03-08T10:14:33.288Z,6.3
2018-03-08T10:15:42.120Z,6.21
2018-03-08T10:16:51.328Z,6.38
2018-03-08T10:18:00.161Z,6.36
2018-03-08T10:19:08.994Z,6.43
2018-03-08T10:20:17.825Z,6.49
2018-03-08T10:21:44.375Z,6.48
2018-03-08T10:22:35.942Z,6.48
2018-03-08T10:23:44.740Z,6.52
2018-03-08T10:24:53.572Z,6.58
2018-03-08T10:26:02.404Z,6.61
2018-03-08T10:27:11.236Z,6.7
2018-03-08T10:28:20.218Z,6.84
2018-03-08T10:29:29.048Z,6.87
2018-03-08T10:30:37.880Z,6.94
2018-03-08T10:31:46.711Z,6.84
2018-03-08T10:32:55.543Z,6.85
2018-03-08T10:34:04.425Z,6.94
2018-03-08T10:35:13.256Z,6.79
2018-03-08T10:36:22.087Z,6.92
2018-03-08T10:37:30.920Z,6.97
2018-03-08T10:38:39.750Z,6.97
2018-03-08T10:39:48.681Z,6.95
2018-03-08T10:40:57.524Z,6.89
2018-03-08T10:42:06.344Z,6.99
2018-03-08T10:43:15.178Z,7.06
2018-03-08T10:44:24.010Z,6.98
2018-03-08T10:45:32.842Z,6.97
2018-03-08T10:46:41.948Z,7.03
2018-03-08T10:47:50.781Z,6.99
2018-03-08T10:50:09.992Z,7.24
2018-03-08T10:51:18.922Z,7.2
2018-03-08T10:52:27.753Z,7.3
2018-03-08T10:53:36.861Z,7.46
2018-03-08T10:54:45.690Z,7.57
2018-03-08T10:55:54.523Z,7.52
2018-03-08T10:57:03.730Z,7.63
2018-03-08T10:58:12.562Z,7.77
2018-03-08T10:59:21.394Z,7.86
2018-03-08T11:00:30.522Z,7.92
2018-03-08T11:01:39.354Z,7.89
2018-03-08T11:02:48.438Z,7.85
2018-03-08T11:03:57.268Z,7.82
2018-03-08T11:05:06.098Z,8.1
2018-03-08T11:06:14.929Z,8.12
2018-03-08T11:07:23.763Z,8.28
2018-03-08T11:08:32.695Z,8.33
2018-03-08T11:09:41.526Z,8.37
2018-03-08T11:10:50.361Z,8.3
2018-03-08T11:11:59.199Z,8.4
2018-03-08T11:13:08.588Z,8.4
2018-03-08T11:14:17.572Z,8.45
2018-03-08T11:15:26.405Z,8.53
2018-03-08T11:16:35.239Z,8.55
2018-03-08T11:17:44.348Z,8.66
2018-03-08T11:18:53.201Z,8.77
2018-03-08T11:20:02.372Z,8.61
2018-03-08T11:21:11.209Z,8.76
2018-03-08T11:22:20.592Z,8.73
2018-03-08T11:23:29.423Z,8.73
2018-03-08T11:24:38.266Z,8.76
2018-03-08T11:25:47.144Z,8.86
2018-03-08T11:26:55.976Z,8.95
2018-03-08T11:28:04.810Z,8.99
2018-03-08T11:29:13.644Z,9.01
2018-03-08T11:30:22.489Z,8.94
2018-03-08T11:31:31.314Z,8.98
2018-03-08T11:32:40.149Z,8.94
2018-03-08T11:33:48.987Z,8.95
2018-03-08T11:34:57.820Z,8.98
2018-03-08T11:36:06.654Z,9.01
2018-03-08T11:37:15.487Z,9.1
2018-03-08T11:38:24.318Z,9.05
2018-03-08T11:39:34.131Z,9.1
2018-03-08T11:40:42.564Z,9.13
2018-03-08T11:41:51.397Z,9.17
2018-03-08T11:43:00.232Z,9.23
2018-03-08T11:44:09.140Z,9.23
2018-03-08T11:45:17.897Z,9.17
2018-03-08T11:46:26.729Z,9.21
2018-03-08T11:47:35.564Z,9.38
2018-03-08T11:48:45.009Z,9.4
2018-03-08T11:49:53.785Z,9.4
2018-03-08T11:51:02.622Z,9.43
2018-03-08T11:52:11.607Z,9.35
2018-03-08T11:53:20.440Z,9.46
2018-03-08T11:54:29.275Z,9.53
2018-03-08T11:55:38.109Z,9.48
2018-03-08T11:56:46.943Z,9.61
2018-03-08T11:57:55.828Z,9.72
2018-03-08T11:59:04.938Z,9.68
2018-03-08T12:00:13.812Z,9.66
2018-03-08T12:01:22.603Z,9.68
2018-03-08T12:02:31.437Z,9.75
2018-03-08T12:03:40.371Z,9.94
2018-03-08T12:04:49.204Z,9.76
2018-03-08T12:05:58.039Z,9.86
2018-03-08T12:07:06.872Z,9.9
2018-03-08T12:08:15.705Z,9.78
2018-03-08T12:09:24.540Z,9.84
2018-03-08T12:10:33.375Z,9.87
2018-03-08T12:11:42.205Z,9.9
2018-03-08T12:12:51.039Z,9.97
2018-03-08T12:13:59.872Z,10.23
2018-03-08T12:15:08.708Z,10.4
2018-03-08T12:16:17.544Z,10.4
2018-03-08T12:17:26.655Z,10.33
2018-03-08T12:18:35.491Z,10.38
2018-03-08T12:19:44.324Z,10.34
2018-03-08T12:20:53.263Z,10.4
2018-03-08T12:22:02.099Z,10.36
2018-03-08T12:23:11.266Z,10.29
2018-03-08T12:24:20.070Z,10.29
2018-03-08T12:25:29.182Z,10.36
2018-03-08T12:26:38.318Z,10.45
2018-03-08T12:27:47.155Z,10.51
2018-03-08T12:28:55.994Z,10.53
2018-03-08T12:30:05.104Z,10.42
2018-03-08T12:31:13.938Z,10.45
2018-03-08T12:32:22.772Z,10.55
2018-03-08T12:33:31.607Z,10.84
2018-03-08T12:34:40.442Z,10.99
2018-03-08T12:35:49.280Z,10.97
2018-03-08T12:36:58.115Z,11.03
2018-03-08T12:38:06.953Z,10.99
2018-03-08T12:39:15.788Z,11.17
2018-03-08T12:40:24.624Z,11.11
2018-03-08T12:41:33.461Z,11.22
2018-03-08T12:42:42.302Z,11.43
2018-03-08T12:43:51.190Z,11.49
2018-03-08T12:45:00.028Z,11.37
2018-03-08T12:46:08.869Z,11.46
2018-03-08T12:47:17.707Z,11.57
2018-03-08T12:48:26.542Z,11.44
2018-03-08T12:49:35.530Z,11.42
2018-03-08T12:50:44.371Z,11.37
2018-03-08T12:51:53.488Z,11.42
2018-03-08T12:53:02.327Z,11.25
2018-03-08T12:54:11.166Z,11.09
2018-03-08T12:55:20.304Z,10.99
2018-03-08T12:56:29.142Z,11.02
2018-03-08T12:57:37.980Z,10.92
2018-03-08T12:58:47.094Z,10.71
2018-03-08T12:59:55.929Z,10.63
2018-03-08T13:01:05.195Z,10.66
2018-03-08T13:02:14.029Z,10.6
2018-03-08T13:03:22.866Z,10.67
2018-03-08T13:04:31.703Z,10.6
2018-03-08T13:05:40.538Z,10.68
2018-03-08T13:06:49.677Z,10.61
2018-03-08T13:07:58.510Z,10.67
2018-03-08T13:09:07.345Z,10.59
2018-03-08T13:10:16.456Z,10.44
2018-03-08T13:11:25.300Z,10.45
2018-03-08T13:12:34.280Z,10.55
2018-03-08T13:13:43.116Z,10.42
2018-03-08T13:14:51.956Z,10.44
2018-03-08T13:16:00.785Z,10.53
2018-03-08T13:17:09.678Z,10.38
2018-03-08T13:18:18.606Z,10.33
2018-03-08T13:19:27.440Z,10.42
2018-03-08T13:20:36.272Z,10.4
2018-03-08T13:21:45.106Z,10.38
2018-03-08T13:22:53.942Z,10.41
2018-03-08T13:24:02.775Z,10.33
2018-03-08T13:25:11.608Z,10.4
2018-03-08T13:26:20.443Z,10.38
2018-03-08T13:27:29.556Z,10.38
2018-03-08T13:28:38.390Z,10.4
2018-03-08T13:29:47.329Z,10.38
2018-03-08T13:30:56.164Z,10.36
2018-03-08T13:32:04.999Z,10.32
2018-03-08T13:33:13.835Z,10.33
2018-03-08T13:34:22.951Z,10.25
2018-03-08T13:35:32.040Z,10.29
2018-03-08T13:36:40.874Z,10.32
2018-03-08T13:37:49.716Z,10.29
2018-03-08T13:38:58.826Z,10.22
2018-03-08T13:40:07.665Z,10.2
2018-03-08T13:41:16.549Z,10.26
2018-03-08T13:42:25.385Z,10.25
2018-03-08T13:43:34.494Z,10.26
2018-03-08T13:44:43.328Z,10.23
2018-03-08T13:45:52.160Z,10.18
2018-03-08T13:47:01.042Z,10.2
2018-03-08T13:48:09.878Z,10.22
2018-03-08T13:49:18.818Z,10.26
2018-03-08T13:50:27.546Z,10.25
2018-03-08T13:51:36.378Z,10.2
2018-03-08T13:52:45.314Z,10.25
2018-03-08T13:53:54.148Z,10.34
2018-03-08T13:55:03.260Z,10.23
2018-03-08T13:56:12.145Z,10.32
2018-03-08T13:57:20.932Z,10.41
2018-03-08T13:58:30.091Z,10.4
2018-03-08T13:59:38.927Z,10.36
2018-03-08T14:00:47.758Z,10.32
2018-03-08T14:01:56.592Z,10.27
2018-03-08T14:03:05.428Z,10.18
2018-03-08T14:04:14.763Z,10.25
2018-03-08T14:05:23.598Z,10.17
2018-03-08T14:06:32.434Z,10.05
2018-03-08T14:07:41.265Z,10.08
2018-03-08T14:08:50.101Z,10.08
2018-03-08T14:09:58.932Z,10.07
2018-03-08T14:11:07.766Z,10.09
2018-03-08T14:12:16.662Z,10.02
2018-03-08T14:13:26.101Z,10.01
2018-03-08T14:14:34.936Z,10.02
2018-03-08T14:15:44.201Z,9.99
2018-03-08T14:16:53.036Z,9.94
2018-03-08T14:18:01.871Z,9.91
2018-03-08T14:19:10.708Z,9.89
2018-03-08T14:20:19.538Z,9.79
2018-03-08T14:21:28.371Z,9.84
2018-03-08T14:22:37.205Z,9.79
2018-03-08T14:23:46.038Z,9.74
2018-03-08T14:24:54.872Z,9.64
2018-03-08T14:26:03.705Z,9.64
2018-03-08T14:27:12.639Z,9.71
2018-03-08T14:28:21.756Z,9.53
2018-03-08T14:29:30.867Z,9.58
2018-03-08T14:30:39.702Z,9.54
2018-03-08T14:31:48.576Z,9.53
2018-03-08T14:32:57.469Z,9.5
2018-03-08T14:34:06.302Z,9.56
2018-03-08T14:35:15.137Z,9.56
2018-03-08T14:36:24.256Z,9.5
2018-03-08T14:37:33.091Z,9.48
2018-03-08T14:38:42.074Z,9.51
2018-03-08T14:39:50.911Z,9.54
2018-03-08T14:41:00.018Z,9.4
2018-03-08T14:42:08.893Z,9.42
2018-03-08T14:43:17.683Z,9.36
2018-03-08T14:44:26.666Z,9.38
2018-03-08T14:45:35.502Z,9.35
2018-03-08T14:46:44.338Z,9.35
2018-03-08T14:47:53.188Z,9.26
2018-03-08T14:49:02.005Z,9.24
2018-03-08T14:50:11.417Z,9.05
2018-03-08T14:51:20.249Z,9.05
2018-03-08T14:52:29.085Z,9.23
2018-03-08T14:53:38.258Z,9.05
2018-03-08T14:54:47.089Z,8.86
2018-03-08T14:55:55.922Z,8.76
2018-03-08T14:57:04.756Z,8.56
2018-03-08T14:58:13.591Z,8.61
2018-03-08T14:59:22.422Z,8.53
2018-03-08T15:00:31.256Z,8.41
2018-03-08T15:01:40.239Z,8.45
2018-03-08T15:02:49.073Z,8.44
2018-03-08T15:03:57.906Z,8.34
2018-03-08T15:05:07.015Z,8.11
2018-03-08T15:06:15.848Z,8.28
2018-03-08T15:07:24.732Z,8.15
2018-03-08T15:08:33.563Z,8.1
2018-03-08T15:09:42.396Z,7.98
2018-03-08T15:10:51.228Z,7.95
2018-03-08T15:12:00.062Z,7.87
2018-03-08T15:13:09.045Z,7.79
2018-03-08T15:14:17.877Z,7.9
2018-03-08T15:15:26.714Z,7.83
2018-03-08T15:16:35.871Z,7.89
2018-03-08T15:17:44.666Z,7.93
2018-03-08T15:18:53.595Z,7.85